createdAt,value
2022-12-31T00:00:15.728Z,21.60
2022-12-31T00:02:42.593Z,21.60
2022-12-31T00:05:10.266Z,21.60
2022-12-31T00:10:03.843Z,21.60
2022-12-31T00:12:30.610Z,21.60
2022-12-31T00:14:57.363Z,21.60
2022-12-31T00:17:24.153Z,21.50
2022-12-31T00:19:50.901Z,21.50
2022-12-31T00:22:17.728Z,21.60
2022-12-31T00:24:44.538Z,21.50
2022-12-31T00:27:11.337Z,21.50
2022-12-31T00:29:38.057Z,21.50
2022-12-31T00:32:05.133Z,21.50
2022-12-31T00:34:32.296Z,21.50
2022-12-31T00:36:59.067Z,21.50
2022-12-31T00:39:26.359Z,21.50
2022-12-31T00:41:53.093Z,21.50
2022-12-31T00:44:22.609Z,21.40
2022-12-31T00:46:49.864Z,21.40
2022-12-31T00:49:16.894Z,21.40
2022-12-31T00:51:43.719Z,21.40
2022-12-31T00:54:11.001Z,21.40
2022-12-31T00:56:37.901Z,21.40
2022-12-31T00:59:05.063Z,21.40
2022-12-31T01:01:37.653Z,21.40
2022-12-31T01:04:08.579Z,21.40
2022-12-31T01:06:35.731Z,21.40
2022-12-31T01:09:02.946Z,21.40
2022-12-31T01:11:29.796Z,21.40
2022-12-31T01:14:05.292Z,21.30
2022-12-31T01:16:44.280Z,21.30
2022-12-31T01:19:14.242Z,21.30
2022-12-31T01:21:42.191Z,21.30
2022-12-31T01:24:10.833Z,21.30
2022-12-31T01:26:38.375Z,21.30
2022-12-31T01:29:09.860Z,21.30
2022-12-31T01:31:37.702Z,21.30
2022-12-31T01:34:05.591Z,21.30
2022-12-31T01:36:34.104Z,21.30
2022-12-31T01:39:03.446Z,21.20
2022-12-31T01:41:39.440Z,21.30
2022-12-31T01:44:11.975Z,21.20
2022-12-31T01:46:43.420Z,21.20
2022-12-31T01:49:41.869Z,21.20
2022-12-31T01:52:11.572Z,21.20
2022-12-31T01:54:48.688Z,21.20
2022-12-31T01:57:17.120Z,21.20
2022-12-31T01:59:45.068Z,21.20
2022-12-31T02:02:14.421Z,21.10
2022-12-31T02:04:41.507Z,21.10
2022-12-31T02:07:09.504Z,21.20
2022-12-31T02:09:39.299Z,21.20
2022-12-31T02:12:07.505Z,21.10
2022-12-31T02:14:37.190Z,21.10
2022-12-31T02:17:29.435Z,21.10
2022-12-31T02:20:11.308Z,21.10
2022-12-31T02:22:49.976Z,21.10
2022-12-31T02:25:57.601Z,21.10
2022-12-31T02:28:43.617Z,21.10
2022-12-31T02:31:17.441Z,21.10
2022-12-31T02:34:05.516Z,21.10
2022-12-31T02:36:37.144Z,21.10
2022-12-31T02:39:07.493Z,21.10
2022-12-31T02:41:52.836Z,21.00
2022-12-31T02:44:27.038Z,21.00
2022-12-31T02:47:06.147Z,21.00
2022-12-31T02:49:51.503Z,21.00
2022-12-31T02:52:35.070Z,21.00
2022-12-31T02:55:18.461Z,21.00
2022-12-31T02:58:03.355Z,21.00
2022-12-31T03:00:51.580Z,21.00
2022-12-31T03:03:20.833Z,21.00
2022-12-31T03:05:49.451Z,20.90
2022-12-31T03:08:24.346Z,21.00
2022-12-31T03:10:51.942Z,20.90
2022-12-31T03:13:18.768Z,21.00
2022-12-31T03:15:45.535Z,20.90
2022-12-31T03:18:17.044Z,20.90
2022-12-31T03:21:08.251Z,20.90
2022-12-31T03:23:41.853Z,20.90
2022-12-31T03:26:12.670Z,20.90
2022-12-31T03:28:47.883Z,20.90
2022-12-31T03:31:16.231Z,20.90
2022-12-31T03:33:43.198Z,20.90
2022-12-31T03:36:13.536Z,20.90
2022-12-31T03:38:40.526Z,20.80
2022-12-31T03:41:09.958Z,20.80
2022-12-31T03:43:36.738Z,20.80
2022-12-31T03:46:03.518Z,20.80
2022-12-31T03:48:33.208Z,20.80
2022-12-31T03:51:00.139Z,20.80
2022-12-31T03:53:27.401Z,20.80
2022-12-31T03:55:55.083Z,20.80
2022-12-31T03:58:22.206Z,20.80
2022-12-31T04:00:49.698Z,20.80
2022-12-31T04:03:16.712Z,20.80
2022-12-31T04:05:43.596Z,20.80
2022-12-31T04:08:10.346Z,20.70
2022-12-31T04:10:37.527Z,20.70
2022-12-31T04:13:04.691Z,20.80
2022-12-31T04:15:32.002Z,20.70
2022-12-31T04:17:58.826Z,20.70
2022-12-31T04:20:25.775Z,20.70
2022-12-31T04:22:52.547Z,20.70
2022-12-31T04:25:19.915Z,20.70
2022-12-31T04:27:46.701Z,20.70
2022-12-31T04:30:14.337Z,20.70
2022-12-31T04:32:41.248Z,20.70
2022-12-31T04:35:09.403Z,20.70
2022-12-31T04:37:36.130Z,20.70
2022-12-31T04:40:06.359Z,20.60
2022-12-31T04:42:34.334Z,20.70
2022-12-31T04:45:01.150Z,20.60
2022-12-31T04:47:27.948Z,20.60
2022-12-31T04:49:54.777Z,20.60
2022-12-31T04:52:21.773Z,20.60
2022-12-31T04:54:48.603Z,20.60
2022-12-31T04:57:15.441Z,20.60
2022-12-31T04:59:42.205Z,20.60
2022-12-31T05:02:09.407Z,20.60
2022-12-31T05:04:36.301Z,20.60
2022-12-31T05:07:03.159Z,20.60
2022-12-31T05:09:30.992Z,20.60
2022-12-31T05:11:58.390Z,20.50
2022-12-31T05:14:25.649Z,20.60
2022-12-31T05:16:52.642Z,20.60
2022-12-31T05:19:19.471Z,20.60
2022-12-31T05:22:06.203Z,20.50
2022-12-31T05:24:33.018Z,20.50
2022-12-31T05:26:59.849Z,20.50
2022-12-31T05:29:26.767Z,20.50
2022-12-31T05:31:53.641Z,20.50
2022-12-31T05:34:20.493Z,20.50
2022-12-31T05:36:47.312Z,20.50
2022-12-31T05:39:14.112Z,20.50
2022-12-31T05:41:40.869Z,20.50
2022-12-31T05:44:07.604Z,20.50
2022-12-31T05:46:34.362Z,20.50
2022-12-31T05:49:01.203Z,20.50
2022-12-31T05:51:27.986Z,20.50
2022-12-31T05:53:54.790Z,20.50
2022-12-31T05:56:22.020Z,20.50
2022-12-31T05:58:51.257Z,20.50
2022-12-31T06:01:18.487Z,20.60
2022-12-31T06:03:45.625Z,20.50
2022-12-31T06:06:14.659Z,20.50
2022-12-31T06:08:41.438Z,20.50
2022-12-31T06:11:08.269Z,20.60
2022-12-31T06:13:35.104Z,20.60
2022-12-31T06:16:09.288Z,20.60
2022-12-31T06:18:36.255Z,20.60
2022-12-31T06:21:04.135Z,20.50
2022-12-31T06:23:31.026Z,20.60
2022-12-31T06:26:01.392Z,20.60
2022-12-31T06:28:28.659Z,20.60
2022-12-31T06:31:03.195Z,20.60
2022-12-31T06:33:30.540Z,20.60
2022-12-31T06:35:58.664Z,20.60
2022-12-31T06:38:25.839Z,20.60
2022-12-31T06:40:52.660Z,20.60
2022-12-31T06:43:22.172Z,20.60
2022-12-31T06:45:49.221Z,20.60
2022-12-31T06:48:16.686Z,20.60
2022-12-31T06:50:43.496Z,20.60
2022-12-31T06:53:10.795Z,20.60
2022-12-31T06:55:38.430Z,20.60
2022-12-31T06:58:05.517Z,20.60
2022-12-31T07:00:32.476Z,20.60
2022-12-31T07:03:17.367Z,20.60
2022-12-31T07:05:44.588Z,20.60
2022-12-31T07:08:30.007Z,20.60
2022-12-31T07:11:26.585Z,20.60
2022-12-31T07:14:00.745Z,20.60
2022-12-31T07:17:04.833Z,20.60
2022-12-31T07:20:09.944Z,20.60
2022-12-31T07:22:37.231Z,20.60
2022-12-31T07:25:06.591Z,20.60
2022-12-31T07:27:58.663Z,20.60
2022-12-31T07:30:41.995Z,20.60
2022-12-31T07:33:19.977Z,20.60
2022-12-31T07:36:05.970Z,20.60
2022-12-31T07:38:56.541Z,20.70
2022-12-31T07:41:48.216Z,20.60
2022-12-31T07:44:38.614Z,20.60
2022-12-31T07:47:13.210Z,20.60
2022-12-31T07:49:43.013Z,20.60
2022-12-31T07:52:10.135Z,20.60
2022-12-31T07:54:36.884Z,20.60
2022-12-31T07:57:04.273Z,20.60
2022-12-31T07:59:51.381Z,20.60
2022-12-31T08:02:36.214Z,20.60
2022-12-31T08:05:12.090Z,20.60
2022-12-31T08:08:00.926Z,20.60
2022-12-31T08:10:51.560Z,20.60
2022-12-31T08:13:19.152Z,20.60
2022-12-31T08:15:46.185Z,20.60
2022-12-31T08:18:13.087Z,20.60
2022-12-31T08:21:07.320Z,20.60
2022-12-31T08:23:57.060Z,20.60
2022-12-31T08:26:50.980Z,20.70
2022-12-31T08:29:19.611Z,20.60
2022-12-31T08:32:01.920Z,20.60
2022-12-31T08:34:41.253Z,20.60
2022-12-31T08:37:26.491Z,20.70
2022-12-31T08:40:14.372Z,20.60
2022-12-31T08:42:51.727Z,20.70
2022-12-31T08:45:51.345Z,20.60
2022-12-31T08:48:43.264Z,20.60
2022-12-31T08:51:23.870Z,20.60
2022-12-31T08:53:51.741Z,20.60
2022-12-31T08:56:32.510Z,20.60
2022-12-31T08:59:20.822Z,20.60
2022-12-31T09:02:02.310Z,20.60
2022-12-31T09:04:46.332Z,20.60
2022-12-31T09:07:16.206Z,20.60
2022-12-31T09:09:53.347Z,20.60
2022-12-31T09:12:43.761Z,20.60
2022-12-31T09:15:33.796Z,20.60
2022-12-31T09:18:00.820Z,20.60
2022-12-31T09:20:42.851Z,20.60
2022-12-31T09:23:13.681Z,20.60
2022-12-31T09:25:58.470Z,20.60
2022-12-31T09:28:38.033Z,20.60
2022-12-31T09:31:19.094Z,20.60
2022-12-31T09:33:52.624Z,20.60
2022-12-31T09:36:27.116Z,20.60
2022-12-31T09:39:07.230Z,20.60
2022-12-31T09:41:55.590Z,20.60
2022-12-31T09:44:44.174Z,20.60
2022-12-31T09:47:32.533Z,20.60
2022-12-31T09:50:29.072Z,20.60
2022-12-31T09:53:07.758Z,20.60
2022-12-31T09:56:03.170Z,20.60
2022-12-31T09:58:44.731Z,20.60
2022-12-31T10:01:38.610Z,20.60
2022-12-31T10:04:39.650Z,20.60
2022-12-31T10:07:25.270Z,20.60
2022-12-31T10:09:55.076Z,20.60
2022-12-31T10:12:42.404Z,20.60
2022-12-31T10:15:40.336Z,20.60
2022-12-31T10:18:29.203Z,20.60
2022-12-31T10:21:02.021Z,20.60
2022-12-31T10:24:07.112Z,20.60
2022-12-31T10:26:53.547Z,20.60
2022-12-31T10:29:34.230Z,20.70
2022-12-31T10:32:23.828Z,20.70
2022-12-31T10:35:12.115Z,20.70
2022-12-31T10:37:41.907Z,20.70
2022-12-31T10:40:46.146Z,20.70
2022-12-31T10:43:39.080Z,20.70
2022-12-31T10:46:12.808Z,20.70
2022-12-31T10:49:19.204Z,20.70
2022-12-31T10:52:14.041Z,20.70
2022-12-31T10:55:25.450Z,20.70
2022-12-31T10:58:03.978Z,20.80
2022-12-31T11:00:38.460Z,20.80
2022-12-31T11:03:29.534Z,20.80
2022-12-31T11:06:35.070Z,20.80
2022-12-31T11:09:34.389Z,20.80
2022-12-31T11:12:25.981Z,20.80
2022-12-31T11:14:58.924Z,20.80
2022-12-31T11:17:40.331Z,20.80
2022-12-31T11:20:23.624Z,20.80
2022-12-31T11:23:03.004Z,20.80
2022-12-31T11:25:38.576Z,20.80
2022-12-31T11:28:36.255Z,20.80
2022-12-31T11:31:05.921Z,20.80
2022-12-31T11:33:59.553Z,20.80
2022-12-31T11:37:03.681Z,20.80
2022-12-31T11:39:46.457Z,20.80
2022-12-31T11:42:57.439Z,20.80
2022-12-31T11:45:50.507Z,20.80
2022-12-31T11:48:57.054Z,20.80
2022-12-31T11:51:48.440Z,20.80
2022-12-31T11:54:35.842Z,20.80
2022-12-31T11:57:31.625Z,20.80
2022-12-31T12:00:01.405Z,20.90
2022-12-31T12:02:43.983Z,20.80
2022-12-31T12:05:16.559Z,20.80
2022-12-31T12:07:43.399Z,20.90
2022-12-31T12:10:19.395Z,20.90
2022-12-31T12:12:46.688Z,20.90
2022-12-31T12:15:22.227Z,20.90
2022-12-31T12:17:58.413Z,20.90
2022-12-31T12:20:34.276Z,20.90
2022-12-31T12:23:13.034Z,20.90
2022-12-31T12:25:43.025Z,20.90
2022-12-31T12:28:19.346Z,20.90
2022-12-31T12:30:52.833Z,20.90
2022-12-31T12:33:20.527Z,20.90
2022-12-31T12:35:47.977Z,20.90
2022-12-31T12:38:20.805Z,20.90
2022-12-31T12:40:59.637Z,20.90
2022-12-31T12:43:29.783Z,20.90
2022-12-31T12:46:02.446Z,20.90
2022-12-31T12:48:40.561Z,20.90
2022-12-31T12:51:31.367Z,20.90
2022-12-31T12:54:29.405Z,20.90
2022-12-31T12:57:22.349Z,20.90
2022-12-31T12:59:58.408Z,20.90
2022-12-31T13:02:54.717Z,20.90
2022-12-31T13:05:40.339Z,20.90
2022-12-31T13:08:30.481Z,21.00
2022-12-31T13:11:08.022Z,21.00
2022-12-31T13:13:34.793Z,21.00
2022-12-31T13:16:29.983Z,21.10
2022-12-31T13:19:11.496Z,21.10
2022-12-31T13:21:46.245Z,21.10
2022-12-31T13:25:04.003Z,21.10
2022-12-31T13:27:42.415Z,21.10
2022-12-31T13:30:23.890Z,21.10
2022-12-31T13:33:11.621Z,21.10
2022-12-31T13:35:53.541Z,21.10
2022-12-31T13:38:28.684Z,21.20
2022-12-31T13:41:04.526Z,21.20
2022-12-31T13:43:50.667Z,21.20
2022-12-31T13:46:45.754Z,21.20
2022-12-31T13:49:37.567Z,21.20
2022-12-31T13:52:32.481Z,21.20
2022-12-31T13:55:25.035Z,21.20
2022-12-31T13:58:14.887Z,21.20
2022-12-31T14:00:49.251Z,21.20
2022-12-31T14:03:30.479Z,21.20
2022-12-31T14:06:07.437Z,21.20
2022-12-31T14:08:34.260Z,21.20
2022-12-31T14:11:24.655Z,21.20
2022-12-31T14:14:23.946Z,21.20
2022-12-31T14:17:04.105Z,21.20
2022-12-31T14:19:43.964Z,21.20
2022-12-31T14:22:45.401Z,21.20
2022-12-31T14:25:34.506Z,21.20
2022-12-31T14:28:03.459Z,21.20
2022-12-31T14:30:35.323Z,21.20
2022-12-31T14:33:09.227Z,21.20
2022-12-31T14:36:10.432Z,21.20
2022-12-31T14:39:04.744Z,21.20
2022-12-31T14:41:45.121Z,21.20
2022-12-31T14:44:37.216Z,21.20
2022-12-31T14:47:33.336Z,21.20
2022-12-31T14:50:17.029Z,21.30
2022-12-31T14:53:08.924Z,21.20
2022-12-31T14:55:38.049Z,21.20
2022-12-31T14:58:29.447Z,21.20
2022-12-31T15:01:08.759Z,21.20
2022-12-31T15:03:45.034Z,21.20
2022-12-31T15:06:38.269Z,21.20
2022-12-31T15:09:32.868Z,21.20
2022-12-31T15:12:00.094Z,21.20
2022-12-31T15:14:45.483Z,21.20
2022-12-31T15:17:33.564Z,21.20
2022-12-31T15:20:29.094Z,21.20
2022-12-31T15:22:56.370Z,21.20
2022-12-31T15:25:41.355Z,21.30
2022-12-31T15:28:40.920Z,21.20
2022-12-31T15:31:20.052Z,21.30
2022-12-31T15:33:57.664Z,21.20
2022-12-31T15:36:27.976Z,21.20
2022-12-31T15:39:06.910Z,21.20
2022-12-31T15:45:00.655Z,21.20
2022-12-31T15:47:43.013Z,21.20
2022-12-31T15:50:21.859Z,21.20
2022-12-31T15:52:58.201Z,21.30
2022-12-31T15:55:38.556Z,21.20
2022-12-31T15:58:11.113Z,21.30
2022-12-31T16:01:05.114Z,21.30
2022-12-31T16:03:32.225Z,21.30
2022-12-31T16:06:14.558Z,21.30
2022-12-31T16:08:45.212Z,21.40
2022-12-31T16:11:12.418Z,21.40
2022-12-31T16:13:48.599Z,21.30
2022-12-31T16:16:21.111Z,21.30
2022-12-31T16:18:50.216Z,21.30
2022-12-31T16:21:32.975Z,21.40
2022-12-31T16:24:05.843Z,21.40
2022-12-31T16:26:48.191Z,21.40
2022-12-31T16:29:18.191Z,21.40
2022-12-31T16:31:46.990Z,21.30
2022-12-31T16:34:19.992Z,21.20
2022-12-31T16:37:00.084Z,21.20
2022-12-31T16:39:28.887Z,21.20
2022-12-31T16:42:13.909Z,21.20
2022-12-31T16:44:41.363Z,21.20
2022-12-31T16:47:14.412Z,21.30
2022-12-31T16:49:42.701Z,21.20
2022-12-31T16:52:28.472Z,21.30
2022-12-31T16:54:57.195Z,21.30
2022-12-31T16:57:27.297Z,21.30
2022-12-31T17:00:06.642Z,21.30
2022-12-31T17:02:43.929Z,21.30
2022-12-31T17:05:25.668Z,21.30
2022-12-31T17:07:52.998Z,21.30
2022-12-31T17:10:33.369Z,21.30
2022-12-31T17:15:51.402Z,21.40
2022-12-31T17:18:24.075Z,21.40
2022-12-31T17:20:52.554Z,21.40
2022-12-31T17:23:27.806Z,21.40
2022-12-31T17:25:59.796Z,21.40
2022-12-31T17:28:28.640Z,21.40
2022-12-31T17:31:01.344Z,21.40
2022-12-31T17:33:29.759Z,21.40
2022-12-31T17:36:14.229Z,21.40
2022-12-31T17:38:43.754Z,21.40
2022-12-31T17:41:24.954Z,21.40
2022-12-31T17:43:56.357Z,21.40
2022-12-31T17:46:25.134Z,21.40
2022-12-31T17:49:00.835Z,21.40
2022-12-31T17:51:27.666Z,21.40
2022-12-31T17:53:54.903Z,21.40
2022-12-31T17:56:21.806Z,21.40
2022-12-31T17:58:52.051Z,21.40
2022-12-31T18:01:22.373Z,21.40
2022-12-31T18:03:49.897Z,21.40
2022-12-31T18:06:19.471Z,21.40
2022-12-31T18:08:47.281Z,21.40
2022-12-31T18:11:20.443Z,21.40
2022-12-31T18:13:47.813Z,21.40
2022-12-31T18:16:16.409Z,21.40
2022-12-31T18:18:45.197Z,21.40
2022-12-31T18:21:23.451Z,21.40
2022-12-31T18:26:22.815Z,21.40
2022-12-31T18:28:53.345Z,21.40
2022-12-31T18:31:26.508Z,21.40
2022-12-31T18:33:56.019Z,21.30
2022-12-31T18:36:23.836Z,21.40
2022-12-31T18:38:51.695Z,21.40
2022-12-31T18:41:26.918Z,21.30
2022-12-31T18:43:54.283Z,21.30
2022-12-31T18:46:23.270Z,21.30
2022-12-31T18:48:50.215Z,21.30
2022-12-31T18:51:19.500Z,21.40
2022-12-31T18:53:46.832Z,21.30
2022-12-31T18:56:16.162Z,21.40
2022-12-31T18:58:45.063Z,21.30
2022-12-31T19:01:34.762Z,21.30
2022-12-31T19:04:04.614Z,21.30
2022-12-31T19:06:31.444Z,21.40
2022-12-31T19:09:01.192Z,21.30
2022-12-31T19:11:28.544Z,21.30
2022-12-31T19:13:55.366Z,21.30
2022-12-31T19:16:22.163Z,21.30
2022-12-31T19:18:49.583Z,21.30
2022-12-31T19:21:22.735Z,21.30
2022-12-31T19:23:51.021Z,21.30
2022-12-31T19:26:20.555Z,21.30
2022-12-31T19:28:48.674Z,21.30
2022-12-31T19:31:15.432Z,21.30
2022-12-31T19:33:42.558Z,21.30
2022-12-31T19:36:17.489Z,21.30
2022-12-31T19:38:44.945Z,21.30
2022-12-31T19:41:20.084Z,21.30
2022-12-31T19:43:47.210Z,21.30
2022-12-31T19:46:16.807Z,21.30
2022-12-31T19:48:44.332Z,21.30
2022-12-31T19:51:15.804Z,21.20
2022-12-31T19:53:42.596Z,21.20
2022-12-31T19:56:27.830Z,21.20
2022-12-31T19:58:54.570Z,21.30
2022-12-31T20:01:25.437Z,21.20
2022-12-31T20:03:52.335Z,21.30
2022-12-31T20:06:20.038Z,21.20
2022-12-31T20:08:47.337Z,21.20
2022-12-31T20:11:15.432Z,21.20
2022-12-31T20:13:42.368Z,21.20
2022-12-31T20:16:12.326Z,21.20
2022-12-31T20:18:40.704Z,21.20
2022-12-31T20:21:13.286Z,21.20
2022-12-31T20:23:40.131Z,21.20
2022-12-31T20:26:07.225Z,21.20
2022-12-31T20:28:33.982Z,21.20
2022-12-31T20:31:08.558Z,21.20
2022-12-31T20:33:36.089Z,21.20
2022-12-31T20:36:04.522Z,21.20
2022-12-31T20:38:31.981Z,21.20
2022-12-31T20:41:28.067Z,21.20
2022-12-31T20:43:54.853Z,21.20
2022-12-31T20:46:24.767Z,21.20
2022-12-31T20:48:53.949Z,21.20
2022-12-31T20:51:21.882Z,21.20
2022-12-31T20:53:57.493Z,21.20
2022-12-31T20:56:26.489Z,21.20
2022-12-31T20:58:53.583Z,21.20
2022-12-31T21:01:21.193Z,21.10
2022-12-31T21:04:06.001Z,21.10
2022-12-31T21:06:33.940Z,21.10
2022-12-31T21:09:02.438Z,21.10
2022-12-31T21:11:48.035Z,21.10
2022-12-31T21:14:15.441Z,21.10
2022-12-31T21:16:42.257Z,21.10
2022-12-31T21:19:10.185Z,21.10
2022-12-31T21:21:37.731Z,21.10
2022-12-31T21:24:05.406Z,21.10
2022-12-31T21:26:32.840Z,21.10
2022-12-31T21:28:59.642Z,21.10
2022-12-31T21:31:26.768Z,21.10
2022-12-31T21:33:53.591Z,21.10
2022-12-31T21:36:22.686Z,21.10
2022-12-31T21:38:49.464Z,21.10
2022-12-31T21:41:35.125Z,21.10
2022-12-31T21:44:02.703Z,21.10
2022-12-31T21:46:30.359Z,21.10
2022-12-31T21:48:58.526Z,21.00
2022-12-31T21:51:25.636Z,21.10
2022-12-31T21:53:52.665Z,21.00
2022-12-31T21:56:21.256Z,21.00
2022-12-31T21:59:13.548Z,21.00
2022-12-31T22:01:59.248Z,21.00
2022-12-31T22:07:13.040Z,21.00
2022-12-31T22:09:39.889Z,21.00
2022-12-31T22:12:06.843Z,21.00
2022-12-31T22:14:33.602Z,21.00
2022-12-31T22:17:00.412Z,21.00
2022-12-31T22:19:27.146Z,21.00
2022-12-31T22:21:53.952Z,21.00
2022-12-31T22:24:20.694Z,20.90
2022-12-31T22:26:47.451Z,20.90
2022-12-31T22:29:14.437Z,20.90
2022-12-31T22:31:41.226Z,20.90
2022-12-31T22:34:08.064Z,20.90
2022-12-31T22:36:34.869Z,20.90
2022-12-31T22:39:01.717Z,20.90
2022-12-31T22:41:28.912Z,20.90
2022-12-31T22:44:03.101Z,20.90
2022-12-31T22:46:30.314Z,20.90
2022-12-31T22:48:59.233Z,20.80
2022-12-31T22:51:54.576Z,20.90
2022-12-31T22:54:14.283Z,20.90
2022-12-31T22:56:41.262Z,20.90
2022-12-31T22:59:08.245Z,20.90
2022-12-31T23:01:35.298Z,20.80
2022-12-31T23:04:02.202Z,20.80
2022-12-31T23:06:29.317Z,20.80
2022-12-31T23:09:14.912Z,20.80
2022-12-31T23:11:43.290Z,20.80
2022-12-31T23:14:35.324Z,20.80
2022-12-31T23:17:29.576Z,20.80
2022-12-31T23:20:20.103Z,20.80
2022-12-31T23:23:06.167Z,20.80
2022-12-31T23:25:35.221Z,20.80
2022-12-31T23:28:02.231Z,20.70
2022-12-31T23:30:29.499Z,20.70
2022-12-31T23:32:56.322Z,20.70
2022-12-31T23:35:23.159Z,20.70
2022-12-31T23:37:50.065Z,20.70
2022-12-31T23:40:21.611Z,20.70
2022-12-31T23:42:52.045Z,20.70
2022-12-31T23:45:19.309Z,20.70
2022-12-31T23:47:46.060Z,20.70
2022-12-31T23:50:12.829Z,20.70
2022-12-31T23:52:39.549Z,20.70
2022-12-31T23:55:06.957Z,20.70
2022-12-31T23:57:33.693Z,20.70
